sensor_id;sensor_type;location;lat;lon;timestamp;P1;durP1;ratioP1;P2;durP2;ratioP2
2646;SDS011;1333;50.958;6.770;2023-09-07T00:00:46;5.57;;;4.57;;
2646;SDS011;1333;50.958;6.770;2023-09-07T00:03:13;5.30;;;4.37;;
2646;SDS011;1333;50.958;6.770;2023-09-07T00:05:39;4.70;;;4.30;;
2646;SDS011;1333;50.958;6.770;2023-09-07T00:08:04;5.30;;;4.30;;
2646;SDS011;1333;50.958;6.770;2023-09-07T00:10:31;5.43;;;4.23;;
2646;SDS011;1333;50.958;6.770;2023-09-07T00:13:00;5.97;;;4.73;;
2646;SDS011;1333;50.958;6.770;2023-09-07T00:15:27;5.93;;;5.00;;
2646;SDS011;1333;50.958;6.770;2023-09-07T00:17:53;4.50;;;4.10;;
2646;SDS011;1333;50.958;6.770;2023-09-07T00:20:18;5.40;;;4.60;;
2646;SDS011;1333;50.958;6.770;2023-09-07T00:22:46;7.00;;;4.63;;
2646;SDS011;1333;50.958;6.770;2023-09-07T00:25:12;4.63;;;4.20;;
2646;SDS011;1333;50.958;6.770;2023-09-07T00:27:38;5.20;;;4.33;;
2646;SDS011;1333;50.958;6.770;2023-09-07T00:30:04;4.60;;;3.97;;
2646;SDS011;1333;50.958;6.770;2023-09-07T00:32:37;4.77;;;4.37;;
2646;SDS011;1333;50.958;6.770;2023-09-07T00:35:04;4.63;;;4.13;;
2646;SDS011;1333;50.958;6.770;2023-09-07T00:37:30;4.80;;;4.40;;
2646;SDS011;1333;50.958;6.770;2023-09-07T00:39:56;5.50;;;4.20;;
2646;SDS011;1333;50.958;6.770;2023-09-07T00:42:22;5.83;;;4.80;;
2646;SDS011;1333;50.958;6.770;2023-09-07T00:44:47;4.93;;;4.43;;
2646;SDS011;1333;50.958;6.770;2023-09-07T00:47:13;6.33;;;3.90;;
2646;SDS011;1333;50.958;6.770;2023-09-07T00:49:40;4.90;;;4.00;;
2646;SDS011;1333;50.958;6.770;2023-09-07T00:52:05;6.60;;;4.93;;
2646;SDS011;1333;50.958;6.770;2023-09-07T00:54:34;4.53;;;4.13;;
2646;SDS011;1333;50.958;6.770;2023-09-07T00:57:01;5.90;;;4.73;;
2646;SDS011;1333;50.958;6.770;2023-09-07T00:59:27;4.90;;;4.40;;
2646;SDS011;1333;50.958;6.770;2023-09-07T01:01:52;5.20;;;4.60;;
2646;SDS011;1333;50.958;6.770;2023-09-07T01:04:18;4.77;;;4.33;;
2646;SDS011;1333;50.958;6.770;2023-09-07T01:06:45;6.37;;;4.47;;
2646;SDS011;1333;50.958;6.770;2023-09-07T01:09:19;6.17;;;5.50;;
2646;SDS011;1333;50.958;6.770;2023-09-07T01:11:47;10.70;;;5.63;;
2646;SDS011;1333;50.958;6.770;2023-09-07T01:14:13;5.97;;;5.30;;
2646;SDS011;1333;50.958;6.770;2023-09-07T01:16:38;4.80;;;3.90;;
2646;SDS011;1333;50.958;6.770;2023-09-07T01:19:07;6.90;;;5.70;;
2646;SDS011;1333;50.958;6.770;2023-09-07T01:21:35;9.23;;;5.70;;
2646;SDS011;1333;50.958;6.770;2023-09-07T01:24:02;5.50;;;4.53;;
2646;SDS011;1333;50.958;6.770;2023-09-07T01:26:31;8.60;;;5.90;;
2646;SDS011;1333;50.958;6.770;2023-09-07T01:28:56;6.70;;;6.00;;
2646;SDS011;1333;50.958;6.770;2023-09-07T01:31:22;7.70;;;6.13;;
2646;SDS011;1333;50.958;6.770;2023-09-07T01:33:48;7.80;;;5.37;;
2646;SDS011;1333;50.958;6.770;2023-09-07T01:36:13;6.57;;;5.70;;
2646;SDS011;1333;50.958;6.770;2023-09-07T01:38:39;11.20;;;4.30;;
2646;SDS011;1333;50.958;6.770;2023-09-07T01:41:04;7.87;;;4.90;;
2646;SDS011;1333;50.958;6.770;2023-09-07T01:43:29;6.40;;;5.80;;
2646;SDS011;1333;50.958;6.770;2023-09-07T01:45:55;10.70;;;8.57;;
2646;SDS011;1333;50.958;6.770;2023-09-07T01:48:20;11.17;;;10.00;;
2646;SDS011;1333;50.958;6.770;2023-09-07T01:50:46;13.50;;;10.10;;
2646;SDS011;1333;50.958;6.770;2023-09-07T01:53:11;10.13;;;7.93;;
2646;SDS011;1333;50.958;6.770;2023-09-07T01:55:37;9.37;;;7.20;;
2646;SDS011;1333;50.958;6.770;2023-09-07T01:58:03;6.43;;;5.70;;
2646;SDS011;1333;50.958;6.770;2023-09-07T02:00:28;8.57;;;5.20;;
2646;SDS011;1333;50.958;6.770;2023-09-07T02:02:54;7.43;;;5.03;;
2646;SDS011;1333;50.958;6.770;2023-09-07T02:05:20;5.93;;;5.30;;
2646;SDS011;1333;50.958;6.770;2023-09-07T02:07:46;7.73;;;5.80;;
2646;SDS011;1333;50.958;6.770;2023-09-07T02:10:14;7.23;;;5.50;;
2646;SDS011;1333;50.958;6.770;2023-09-07T02:12:40;9.90;;;7.20;;
2646;SDS011;1333;50.958;6.770;2023-09-07T02:15:06;6.33;;;4.33;;
2646;SDS011;1333;50.958;6.770;2023-09-07T02:17:31;5.13;;;4.27;;
2646;SDS011;1333;50.958;6.770;2023-09-07T02:19:57;6.87;;;4.93;;
2646;SDS011;1333;50.958;6.770;2023-09-07T02:22:23;5.93;;;4.40;;
2646;SDS011;1333;50.958;6.770;2023-09-07T02:24:48;8.03;;;5.63;;
2646;SDS011;1333;50.958;6.770;2023-09-07T02:27:14;5.20;;;4.57;;
2646;SDS011;1333;50.958;6.770;2023-09-07T02:29:39;7.20;;;6.00;;
2646;SDS011;1333;50.958;6.770;2023-09-07T02:32:05;7.23;;;5.50;;
2646;SDS011;1333;50.958;6.770;2023-09-07T02:34:32;6.00;;;5.40;;
2646;SDS011;1333;50.958;6.770;2023-09-07T02:37:01;5.53;;;4.93;;
2646;SDS011;1333;50.958;6.770;2023-09-07T02:39:27;5.90;;;5.10;;
2646;SDS011;1333;50.958;6.770;2023-09-07T02:41:53;9.77;;;7.10;;
2646;SDS011;1333;50.958;6.770;2023-09-07T02:44:18;11.60;;;7.90;;
2646;SDS011;1333;50.958;6.770;2023-09-07T02:46:44;7.07;;;5.87;;
2646;SDS011;1333;50.958;6.770;2023-09-07T02:49:09;10.00;;;5.53;;
2646;SDS011;1333;50.958;6.770;2023-09-07T02:51:35;5.60;;;5.10;;
2646;SDS011;1333;50.958;6.770;2023-09-07T02:54:01;9.03;;;5.70;;
2646;SDS011;1333;50.958;6.770;2023-09-07T02:56:28;8.77;;;6.07;;
2646;SDS011;1333;50.958;6.770;2023-09-07T02:58:53;9.63;;;7.73;;
2646;SDS011;1333;50.958;6.770;2023-09-07T03:01:19;10.73;;;7.33;;
2646;SDS011;1333;50.958;6.770;2023-09-07T03:03:46;7.97;;;6.70;;
2646;SDS011;1333;50.958;6.770;2023-09-07T03:06:12;6.40;;;5.20;;
2646;SDS011;1333;50.958;6.770;2023-09-07T03:08:41;6.20;;;4.83;;
2646;SDS011;1333;50.958;6.770;2023-09-07T03:11:07;6.17;;;5.57;;
2646;SDS011;1333;50.958;6.770;2023-09-07T03:13:33;6.47;;;5.00;;
2646;SDS011;1333;50.958;6.770;2023-09-07T03:15:59;6.40;;;5.07;;
2646;SDS011;1333;50.958;6.770;2023-09-07T03:18:25;6.27;;;4.90;;
2646;SDS011;1333;50.958;6.770;2023-09-07T03:20:52;5.63;;;4.20;;
2646;SDS011;1333;50.958;6.770;2023-09-07T03:23:19;5.27;;;4.80;;
2646;SDS011;1333;50.958;6.770;2023-09-07T03:25:44;5.57;;;4.43;;
2646;SDS011;1333;50.958;6.770;2023-09-07T03:28:10;6.23;;;4.90;;
2646;SDS011;1333;50.958;6.770;2023-09-07T03:30:35;7.80;;;4.60;;
2646;SDS011;1333;50.958;6.770;2023-09-07T03:33:01;5.43;;;4.67;;
2646;SDS011;1333;50.958;6.770;2023-09-07T03:35:28;5.80;;;4.10;;
2646;SDS011;1333;50.958;6.770;2023-09-07T03:37:53;9.20;;;4.60;;
2646;SDS011;1333;50.958;6.770;2023-09-07T03:40:19;6.87;;;4.80;;
2646;SDS011;1333;50.958;6.770;2023-09-07T03:42:45;5.17;;;4.43;;
2646;SDS011;1333;50.958;6.770;2023-09-07T03:45:11;7.10;;;5.20;;
2646;SDS011;1333;50.958;6.770;2023-09-07T03:47:37;6.80;;;4.63;;
2646;SDS011;1333;50.958;6.770;2023-09-07T03:50:03;6.73;;;5.40;;
2646;SDS011;1333;50.958;6.770;2023-09-07T03:52:29;6.00;;;4.30;;
2646;SDS011;1333;50.958;6.770;2023-09-07T03:54:55;4.67;;;4.20;;
2646;SDS011;1333;50.958;6.770;2023-09-07T03:57:21;7.07;;;4.67;;
2646;SDS011;1333;50.958;6.770;2023-09-07T03:59:47;4.97;;;4.50;;
2646;SDS011;1333;50.958;6.770;2023-09-07T04:02:13;7.33;;;4.30;;
2646;SDS011;1333;50.958;6.770;2023-09-07T04:04:39;5.87;;;5.27;;
2646;SDS011;1333;50.958;6.770;2023-09-07T04:07:06;6.20;;;4.60;;
2646;SDS011;1333;50.958;6.770;2023-09-07T04:09:31;7.43;;;5.30;;
2646;SDS011;1333;50.958;6.770;2023-09-07T04:11:57;6.10;;;5.50;;
2646;SDS011;1333;50.958;6.770;2023-09-07T04:14:22;6.20;;;5.20;;
2646;SDS011;1333;50.958;6.770;2023-09-07T04:16:48;5.60;;;4.67;;
2646;SDS011;1333;50.958;6.770;2023-09-07T04:19:13;12.67;;;8.83;;
2646;SDS011;1333;50.958;6.770;2023-09-07T04:21:39;8.70;;;7.17;;
2646;SDS011;1333;50.958;6.770;2023-09-07T04:24:04;8.60;;;6.07;;
2646;SDS011;1333;50.958;6.770;2023-09-07T04:26:30;10.33;;;5.97;;
2646;SDS011;1333;50.958;6.770;2023-09-07T04:28:56;6.17;;;5.23;;
2646;SDS011;1333;50.958;6.770;2023-09-07T04:31:21;11.47;;;5.13;;
2646;SDS011;1333;50.958;6.770;2023-09-07T04:33:49;6.20;;;5.57;;
2646;SDS011;1333;50.958;6.770;2023-09-07T04:36:15;6.37;;;5.77;;
2646;SDS011;1333;50.958;6.770;2023-09-07T04:38:41;8.60;;;5.87;;
2646;SDS011;1333;50.958;6.770;2023-09-07T04:41:10;6.60;;;5.23;;
2646;SDS011;1333;50.958;6.770;2023-09-07T04:43:37;6.57;;;5.87;;
2646;SDS011;1333;50.958;6.770;2023-09-07T04:46:05;6.27;;;5.40;;
2646;SDS011;1333;50.958;6.770;2023-09-07T04:48:32;6.13;;;5.40;;
2646;SDS011;1333;50.958;6.770;2023-09-07T04:51:02;11.33;;;6.40;;
2646;SDS011;1333;50.958;6.770;2023-09-07T04:53:30;7.30;;;5.70;;
2646;SDS011;1333;50.958;6.770;2023-09-07T04:55:57;6.73;;;5.63;;
2646;SDS011;1333;50.958;6.770;2023-09-07T04:58:22;6.37;;;5.53;;
2646;SDS011;1333;50.958;6.770;2023-09-07T05:00:48;8.43;;;6.10;;
2646;SDS011;1333;50.958;6.770;2023-09-07T05:03:14;6.80;;;6.10;;
2646;SDS011;1333;50.958;6.770;2023-09-07T05:05:40;7.57;;;6.33;;
2646;SDS011;1333;50.958;6.770;2023-09-07T05:08:06;6.90;;;5.10;;
2646;SDS011;1333;50.958;6.770;2023-09-07T05:10:35;6.87;;;5.40;;
2646;SDS011;1333;50.958;6.770;2023-09-07T05:13:01;5.73;;;5.10;;
2646;SDS011;1333;50.958;6.770;2023-09-07T05:15:27;9.03;;;5.37;;
2646;SDS011;1333;50.958;6.770;2023-09-07T05:17:53;5.53;;;5.03;;
2646;SDS011;1333;50.958;6.770;2023-09-07T05:20:19;8.20;;;5.77;;
2646;SDS011;1333;50.958;6.770;2023-09-07T05:22:44;6.50;;;5.47;;
2646;SDS011;1333;50.958;6.770;2023-09-07T05:25:10;7.63;;;6.00;;
2646;SDS011;1333;50.958;6.770;2023-09-07T05:27:36;7.23;;;6.50;;
2646;SDS011;1333;50.958;6.770;2023-09-07T05:30:03;7.70;;;6.87;;
2646;SDS011;1333;50.958;6.770;2023-09-07T05:32:29;6.00;;;5.40;;
2646;SDS011;1333;50.958;6.770;2023-09-07T05:34:55;9.07;;;7.63;;
2646;SDS011;1333;50.958;6.770;2023-09-07T05:37:20;8.60;;;6.17;;
2646;SDS011;1333;50.958;6.770;2023-09-07T05:39:46;6.20;;;5.60;;
2646;SDS011;1333;50.958;6.770;2023-09-07T05:42:11;7.73;;;6.00;;
2646;SDS011;1333;50.958;6.770;2023-09-07T05:44:37;6.80;;;5.90;;
2646;SDS011;1333;50.958;6.770;2023-09-07T05:47:03;7.53;;;5.87;;
2646;SDS011;1333;50.958;6.770;2023-09-07T05:49:29;7.00;;;6.30;;
2646;SDS011;1333;50.958;6.770;2023-09-07T05:51:55;10.30;;;6.60;;
2646;SDS011;1333;50.958;6.770;2023-09-07T05:54:21;14.07;;;5.60;;
2646;SDS011;1333;50.958;6.770;2023-09-07T05:56:46;10.03;;;6.73;;
2646;SDS011;1333;50.958;6.770;2023-09-07T05:59:12;8.03;;;5.87;;
2646;SDS011;1333;50.958;6.770;2023-09-07T06:01:38;8.20;;;6.87;;
2646;SDS011;1333;50.958;6.770;2023-09-07T06:04:04;6.93;;;5.70;;
2646;SDS011;1333;50.958;6.770;2023-09-07T06:06:31;8.03;;;5.33;;
2646;SDS011;1333;50.958;6.770;2023-09-07T06:08:56;6.50;;;5.70;;
2646;SDS011;1333;50.958;6.770;2023-09-07T06:11:24;9.90;;;5.50;;
2646;SDS011;1333;50.958;6.770;2023-09-07T06:13:49;5.33;;;4.63;;
2646;SDS011;1333;50.958;6.770;2023-09-07T06:16:15;5.97;;;5.10;;
2646;SDS011;1333;50.958;6.770;2023-09-07T06:18:41;5.60;;;4.97;;
2646;SDS011;1333;50.958;6.770;2023-09-07T06:21:06;5.87;;;4.50;;
2646;SDS011;1333;50.958;6.770;2023-09-07T06:23:32;5.30;;;4.63;;
2646;SDS011;1333;50.958;6.770;2023-09-07T06:25:57;11.63;;;4.30;;
2646;SDS011;1333;50.958;6.770;2023-09-07T06:28:23;5.03;;;4.60;;
2646;SDS011;1333;50.958;6.770;2023-09-07T06:30:48;9.40;;;4.40;;
2646;SDS011;1333;50.958;6.770;2023-09-07T06:33:14;4.47;;;4.07;;
2646;SDS011;1333;50.958;6.770;2023-09-07T06:35:39;4.50;;;4.10;;
2646;SDS011;1333;50.958;6.770;2023-09-07T06:38:05;4.70;;;4.30;;
2646;SDS011;1333;50.958;6.770;2023-09-07T06:40:30;5.03;;;4.13;;
2646;SDS011;1333;50.958;6.770;2023-09-07T06:42:56;6.37;;;3.70;;
2646;SDS011;1333;50.958;6.770;2023-09-07T06:45:22;4.20;;;3.80;;
2646;SDS011;1333;50.958;6.770;2023-09-07T06:47:49;5.07;;;4.60;;
2646;SDS011;1333;50.958;6.770;2023-09-07T06:50:15;5.10;;;3.77;;
2646;SDS011;1333;50.958;6.770;2023-09-07T06:52:41;4.40;;;4.00;;
2646;SDS011;1333;50.958;6.770;2023-09-07T06:55:06;6.33;;;4.43;;
2646;SDS011;1333;50.958;6.770;2023-09-07T06:57:32;5.00;;;3.70;;
2646;SDS011;1333;50.958;6.770;2023-09-07T06:59:58;7.53;;;3.83;;
2646;SDS011;1333;50.958;6.770;2023-09-07T07:02:24;5.30;;;4.53;;
2646;SDS011;1333;50.958;6.770;2023-09-07T07:04:50;4.47;;;4.07;;
2646;SDS011;1333;50.958;6.770;2023-09-07T07:07:16;4.13;;;3.73;;
2646;SDS011;1333;50.958;6.770;2023-09-07T07:09:42;5.87;;;4.03;;
2646;SDS011;1333;50.958;6.770;2023-09-07T07:12:07;4.80;;;4.30;;
2646;SDS011;1333;50.958;6.770;2023-09-07T07:14:33;5.10;;;3.90;;
2646;SDS011;1333;50.958;6.770;2023-09-07T07:16:58;4.77;;;4.37;;
2646;SDS011;1333;50.958;6.770;2023-09-07T07:19:26;5.37;;;4.00;;
2646;SDS011;1333;50.958;6.770;2023-09-07T07:21:52;4.03;;;3.43;;
2646;SDS011;1333;50.958;6.770;2023-09-07T07:24:17;4.57;;;3.40;;
2646;SDS011;1333;50.958;6.770;2023-09-07T07:26:43;6.60;;;4.50;;
2646;SDS011;1333;50.958;6.770;2023-09-07T07:29:09;7.43;;;4.00;;
2646;SDS011;1333;50.958;6.770;2023-09-07T07:31:34;4.83;;;3.93;;
2646;SDS011;1333;50.958;6.770;2023-09-07T07:34:01;4.10;;;3.80;;
2646;SDS011;1333;50.958;6.770;2023-09-07T07:36:26;4.10;;;3.50;;
2646;SDS011;1333;50.958;6.770;2023-09-07T07:38:52;7.70;;;3.97;;
2646;SDS011;1333;50.958;6.770;2023-09-07T07:41:17;5.80;;;4.20;;
2646;SDS011;1333;50.958;6.770;2023-09-07T07:43:43;4.60;;;4.20;;
2646;SDS011;1333;50.958;6.770;2023-09-07T07:46:08;4.60;;;4.13;;
2646;SDS011;1333;50.958;6.770;2023-09-07T07:48:34;4.03;;;3.63;;
2646;SDS011;1333;50.958;6.770;2023-09-07T07:51:02;5.33;;;3.60;;
2646;SDS011;1333;50.958;6.770;2023-09-07T07:53:29;6.80;;;3.70;;
2646;SDS011;1333;50.958;6.770;2023-09-07T07:55:55;5.03;;;4.23;;
2646;SDS011;1333;50.958;6.770;2023-09-07T07:58:22;4.60;;;4.20;;
2646;SDS011;1333;50.958;6.770;2023-09-07T08:00:47;4.40;;;3.50;;
2646;SDS011;1333;50.958;6.770;2023-09-07T08:03:13;5.40;;;3.93;;
2646;SDS011;1333;50.958;6.770;2023-09-07T08:05:40;3.80;;;3.50;;
2646;SDS011;1333;50.958;6.770;2023-09-07T08:08:06;3.37;;;3.07;;
2646;SDS011;1333;50.958;6.770;2023-09-07T08:10:35;4.27;;;3.63;;
2646;SDS011;1333;50.958;6.770;2023-09-07T08:13:02;4.03;;;3.63;;
2646;SDS011;1333;50.958;6.770;2023-09-07T08:15:28;5.30;;;3.93;;
2646;SDS011;1333;50.958;6.770;2023-09-07T08:17:54;3.90;;;3.50;;
2646;SDS011;1333;50.958;6.770;2023-09-07T08:20:21;3.93;;;3.53;;
2646;SDS011;1333;50.958;6.770;2023-09-07T08:22:46;3.83;;;3.53;;
2646;SDS011;1333;50.958;6.770;2023-09-07T08:25:12;3.43;;;3.13;;
2646;SDS011;1333;50.958;6.770;2023-09-07T08:27:40;5.40;;;3.50;;
2646;SDS011;1333;50.958;6.770;2023-09-07T08:30:11;3.83;;;3.53;;
2646;SDS011;1333;50.958;6.770;2023-09-07T08:32:37;5.17;;;3.30;;
2646;SDS011;1333;50.958;6.770;2023-09-07T08:35:03;4.67;;;3.70;;
2646;SDS011;1333;50.958;6.770;2023-09-07T08:37:32;3.43;;;3.13;;
2646;SDS011;1333;50.958;6.770;2023-09-07T08:39:58;4.63;;;4.23;;
2646;SDS011;1333;50.958;6.770;2023-09-07T08:42:24;3.90;;;3.60;;
2646;SDS011;1333;50.958;6.770;2023-09-07T08:44:50;4.70;;;4.10;;
2646;SDS011;1333;50.958;6.770;2023-09-07T08:47:17;3.90;;;3.60;;
2646;SDS011;1333;50.958;6.770;2023-09-07T08:49:43;8.20;;;4.00;;
2646;SDS011;1333;50.958;6.770;2023-09-07T08:52:11;4.30;;;3.90;;
2646;SDS011;1333;50.958;6.770;2023-09-07T08:54:37;4.77;;;4.20;;
2646;SDS011;1333;50.958;6.770;2023-09-07T08:57:03;4.57;;;4.27;;
2646;SDS011;1333;50.958;6.770;2023-09-07T08:59:30;6.13;;;3.90;;
2646;SDS011;1333;50.958;6.770;2023-09-07T09:01:56;4.23;;;3.83;;
2646;SDS011;1333;50.958;6.770;2023-09-07T09:04:23;3.67;;;3.30;;
2646;SDS011;1333;50.958;6.770;2023-09-07T09:06:49;4.03;;;3.73;;
2646;SDS011;1333;50.958;6.770;2023-09-07T09:09:23;4.23;;;3.93;;
2646;SDS011;1333;50.958;6.770;2023-09-07T09:11:50;4.13;;;3.77;;
2646;SDS011;1333;50.958;6.770;2023-09-07T09:14:16;4.47;;;4.10;;
2646;SDS011;1333;50.958;6.770;2023-09-07T09:16:50;4.10;;;3.80;;
2646;SDS011;1333;50.958;6.770;2023-09-07T09:19:16;5.43;;;4.03;;
2646;SDS011;1333;50.958;6.770;2023-09-07T09:21:45;4.37;;;4.07;;
2646;SDS011;1333;50.958;6.770;2023-09-07T09:24:11;4.80;;;4.50;;
2646;SDS011;1333;50.958;6.770;2023-09-07T09:26:37;4.03;;;3.83;;
2646;SDS011;1333;50.958;6.770;2023-09-07T09:29:03;4.03;;;3.70;;
2646;SDS011;1333;50.958;6.770;2023-09-07T09:31:29;4.43;;;4.07;;
2646;SDS011;1333;50.958;6.770;2023-09-07T09:33:55;4.77;;;3.63;;
2646;SDS011;1333;50.958;6.770;2023-09-07T09:36:21;4.37;;;4.07;;
2646;SDS011;1333;50.958;6.770;2023-09-07T09:38:51;4.73;;;4.33;;
2646;SDS011;1333;50.958;6.770;2023-09-07T09:41:19;5.20;;;4.70;;
2646;SDS011;1333;50.958;6.770;2023-09-07T09:43:46;4.90;;;4.50;;
2646;SDS011;1333;50.958;6.770;2023-09-07T09:46:16;4.60;;;4.20;;
2646;SDS011;1333;50.958;6.770;2023-09-07T09:48:42;5.03;;;4.50;;
2646;SDS011;1333;50.958;6.770;2023-09-07T09:51:09;4.83;;;4.53;;
2646;SDS011;1333;50.958;6.770;2023-09-07T09:53:38;6.60;;;5.30;;
2646;SDS011;1333;50.958;6.770;2023-09-07T09:56:04;4.60;;;4.30;;
2646;SDS011;1333;50.958;6.770;2023-09-07T09:58:29;4.73;;;4.53;;
2646;SDS011;1333;50.958;6.770;2023-09-07T10:00:56;4.70;;;4.40;;
2646;SDS011;1333;50.958;6.770;2023-09-07T10:05:53;8.90;;;8.30;;
2646;SDS011;1333;50.958;6.770;2023-09-07T10:08:18;5.40;;;5.00;;
2646;SDS011;1333;50.958;6.770;2023-09-07T10:10:48;5.77;;;5.40;;
2646;SDS011;1333;50.958;6.770;2023-09-07T10:13:28;4.47;;;4.17;;
2646;SDS011;1333;50.958;6.770;2023-09-07T10:16:02;4.97;;;4.33;;
2646;SDS011;1333;50.958;6.770;2023-09-07T10:18:35;5.10;;;4.80;;
2646;SDS011;1333;50.958;6.770;2023-09-07T10:21:03;5.53;;;5.13;;
2646;SDS011;1333;50.958;6.770;2023-09-07T10:26:02;4.77;;;4.47;;
2646;SDS011;1333;50.958;6.770;2023-09-07T10:28:32;5.10;;;4.80;;
2646;SDS011;1333;50.958;6.770;2023-09-07T10:31:02;6.20;;;5.70;;
2646;SDS011;1333;50.958;6.770;2023-09-07T10:33:34;5.00;;;4.70;;
2646;SDS011;1333;50.958;6.770;2023-09-07T10:36:01;5.67;;;5.37;;
2646;SDS011;1333;50.958;6.770;2023-09-07T10:38:28;6.00;;;5.60;;
2646;SDS011;1333;50.958;6.770;2023-09-07T10:40:54;5.80;;;4.70;;
2646;SDS011;1333;50.958;6.770;2023-09-07T10:43:22;6.27;;;5.33;;
2646;SDS011;1333;50.958;6.770;2023-09-07T10:45:58;6.80;;;6.20;;
2646;SDS011;1333;50.958;6.770;2023-09-07T10:48:25;5.97;;;5.57;;
2646;SDS011;1333;50.958;6.770;2023-09-07T10:50:53;6.03;;;5.72;;
2646;SDS011;1333;50.958;6.770;2023-09-07T10:53:26;6.53;;;6.13;;
2646;SDS011;1333;50.958;6.770;2023-09-07T10:55:59;6.10;;;5.60;;
2646;SDS011;1333;50.958;6.770;2023-09-07T10:58:35;5.37;;;5.07;;
2646;SDS011;1333;50.958;6.770;2023-09-07T11:01:04;5.80;;;5.57;;
2646;SDS011;1333;50.958;6.770;2023-09-07T11:03:30;5.57;;;5.27;;
2646;SDS011;1333;50.958;6.770;2023-09-07T11:06:19;5.73;;;5.33;;
2646;SDS011;1333;50.958;6.770;2023-09-07T11:08:44;5.60;;;5.30;;
2646;SDS011;1333;50.958;6.770;2023-09-07T11:11:10;6.10;;;5.80;;
2646;SDS011;1333;50.958;6.770;2023-09-07T11:13:37;6.37;;;6.00;;
2646;SDS011;1333;50.958;6.770;2023-09-07T11:16:02;5.80;;;5.50;;
2646;SDS011;1333;50.958;6.770;2023-09-07T11:18:31;5.50;;;5.20;;
2646;SDS011;1333;50.958;6.770;2023-09-07T11:21:00;6.00;;;5.10;;
2646;SDS011;1333;50.958;6.770;2023-09-07T11:23:29;5.70;;;5.37;;
2646;SDS011;1333;50.958;6.770;2023-09-07T11:25:56;4.57;;;4.27;;
2646;SDS011;1333;50.958;6.770;2023-09-07T11:28:22;4.70;;;4.40;;
2646;SDS011;1333;50.958;6.770;2023-09-07T11:33:16;4.73;;;4.43;;
2646;SDS011;1333;50.958;6.770;2023-09-07T11:35:42;5.13;;;4.60;;
2646;SDS011;1333;50.958;6.770;2023-09-07T11:38:08;4.73;;;4.43;;
2646;SDS011;1333;50.958;6.770;2023-09-07T11:40:37;5.63;;;5.00;;
2646;SDS011;1333;50.958;6.770;2023-09-07T11:43:02;5.33;;;4.83;;
2646;SDS011;1333;50.958;6.770;2023-09-07T11:45:28;5.00;;;4.60;;
2646;SDS011;1333;50.958;6.770;2023-09-07T11:47:53;5.40;;;5.00;;
2646;SDS011;1333;50.958;6.770;2023-09-07T11:50:19;5.30;;;4.90;;
2646;SDS011;1333;50.958;6.770;2023-09-07T11:52:47;8.43;;;4.70;;
2646;SDS011;1333;50.958;6.770;2023-09-07T11:55:14;4.27;;;3.97;;
2646;SDS011;1333;50.958;6.770;2023-09-07T11:57:39;5.00;;;4.70;;
2646;SDS011;1333;50.958;6.770;2023-09-07T12:00:06;4.97;;;4.53;;
2646;SDS011;1333;50.958;6.770;2023-09-07T12:02:34;4.90;;;4.60;;
2646;SDS011;1333;50.958;6.770;2023-09-07T12:05:00;5.00;;;4.70;;
2646;SDS011;1333;50.958;6.770;2023-09-07T12:07:28;5.00;;;4.60;;
2646;SDS011;1333;50.958;6.770;2023-09-07T12:09:54;5.20;;;4.77;;
2646;SDS011;1333;50.958;6.770;2023-09-07T12:12:22;5.73;;;5.33;;
2646;SDS011;1333;50.958;6.770;2023-09-07T12:14:48;5.43;;;5.03;;
2646;SDS011;1333;50.958;6.770;2023-09-07T12:17:13;5.90;;;5.53;;
2646;SDS011;1333;50.958;6.770;2023-09-07T12:19:39;5.37;;;4.97;;
2646;SDS011;1333;50.958;6.770;2023-09-07T12:22:06;5.90;;;5.50;;
2646;SDS011;1333;50.958;6.770;2023-09-07T12:24:32;5.50;;;5.20;;
2646;SDS011;1333;50.958;6.770;2023-09-07T12:26:58;5.40;;;5.10;;
2646;SDS011;1333;50.958;6.770;2023-09-07T12:29:24;4.77;;;4.57;;
2646;SDS011;1333;50.958;6.770;2023-09-07T12:31:50;5.43;;;5.13;;
2646;SDS011;1333;50.958;6.770;2023-09-07T12:34:16;5.40;;;5.10;;
2646;SDS011;1333;50.958;6.770;2023-09-07T12:36:41;5.77;;;5.47;;
2646;SDS011;1333;50.958;6.770;2023-09-07T12:39:07;5.87;;;5.37;;
2646;SDS011;1333;50.958;6.770;2023-09-07T12:41:32;4.60;;;4.40;;
2646;SDS011;1333;50.958;6.770;2023-09-07T12:43:58;4.97;;;4.67;;
2646;SDS011;1333;50.958;6.770;2023-09-07T12:46:24;6.70;;;5.13;;
2646;SDS011;1333;50.958;6.770;2023-09-07T12:48:49;5.40;;;5.00;;
2646;SDS011;1333;50.958;6.770;2023-09-07T12:51:15;5.00;;;4.70;;
2646;SDS011;1333;50.958;6.770;2023-09-07T12:53:41;4.40;;;4.10;;
2646;SDS011;1333;50.958;6.770;2023-09-07T12:56:06;4.93;;;4.63;;
2646;SDS011;1333;50.958;6.770;2023-09-07T12:58:32;5.23;;;4.77;;
2646;SDS011;1333;50.958;6.770;2023-09-07T13:00:57;4.70;;;4.30;;
2646;SDS011;1333;50.958;6.770;2023-09-07T13:03:23;4.30;;;4.10;;
2646;SDS011;1333;50.958;6.770;2023-09-07T13:05:48;5.43;;;5.03;;
2646;SDS011;1333;50.958;6.770;2023-09-07T13:08:14;5.60;;;5.10;;
2646;SDS011;1333;50.958;6.770;2023-09-07T13:10:40;4.77;;;4.53;;
2646;SDS011;1333;50.958;6.770;2023-09-07T13:13:06;5.57;;;5.27;;
2646;SDS011;1333;50.958;6.770;2023-09-07T13:15:32;5.20;;;4.90;;
2646;SDS011;1333;50.958;6.770;2023-09-07T13:17:58;5.13;;;4.83;;
2646;SDS011;1333;50.958;6.770;2023-09-07T13:20:24;4.83;;;4.53;;
2646;SDS011;1333;50.958;6.770;2023-09-07T13:22:49;5.30;;;4.90;;
2646;SDS011;1333;50.958;6.770;2023-09-07T13:25:15;5.27;;;4.77;;
2646;SDS011;1333;50.958;6.770;2023-09-07T13:27:40;5.17;;;4.73;;
2646;SDS011;1333;50.958;6.770;2023-09-07T13:30:06;5.10;;;4.70;;
2646;SDS011;1333;50.958;6.770;2023-09-07T13:32:37;4.63;;;4.40;;
2646;SDS011;1333;50.958;6.770;2023-09-07T13:35:03;4.70;;;4.40;;
2646;SDS011;1333;50.958;6.770;2023-09-07T13:37:29;5.50;;;5.20;;
2646;SDS011;1333;50.958;6.770;2023-09-07T13:39:55;4.43;;;4.23;;
2646;SDS011;1333;50.958;6.770;2023-09-07T13:42:20;5.10;;;4.80;;
2646;SDS011;1333;50.958;6.770;2023-09-07T13:44:46;5.70;;;5.27;;
2646;SDS011;1333;50.958;6.770;2023-09-07T13:47:12;5.53;;;5.03;;
2646;SDS011;1333;50.958;6.770;2023-09-07T13:49:38;5.10;;;4.70;;
2646;SDS011;1333;50.958;6.770;2023-09-07T13:52:03;5.13;;;4.83;;
2646;SDS011;1333;50.958;6.770;2023-09-07T13:54:29;5.63;;;5.20;;
2646;SDS011;1333;50.958;6.770;2023-09-07T13:56:55;4.27;;;3.97;;
2646;SDS011;1333;50.958;6.770;2023-09-07T13:59:21;4.87;;;4.57;;
2646;SDS011;1333;50.958;6.770;2023-09-07T14:01:46;4.50;;;4.30;;
2646;SDS011;1333;50.958;6.770;2023-09-07T14:04:14;4.57;;;4.37;;
2646;SDS011;1333;50.958;6.770;2023-09-07T14:06:39;4.27;;;3.97;;
2646;SDS011;1333;50.958;6.770;2023-09-07T14:09:05;4.63;;;4.33;;
2646;SDS011;1333;50.958;6.770;2023-09-07T14:11:31;4.40;;;4.10;;
2646;SDS011;1333;50.958;6.770;2023-09-07T14:13:58;5.23;;;4.83;;
2646;SDS011;1333;50.958;6.770;2023-09-07T14:16:23;8.90;;;4.47;;
2646;SDS011;1333;50.958;6.770;2023-09-07T14:18:49;4.10;;;3.90;;
2646;SDS011;1333;50.958;6.770;2023-09-07T14:21:15;4.00;;;3.70;;
2646;SDS011;1333;50.958;6.770;2023-09-07T14:23:42;4.67;;;4.27;;
2646;SDS011;1333;50.958;6.770;2023-09-07T14:26:08;5.30;;;4.80;;
2646;SDS011;1333;50.958;6.770;2023-09-07T14:28:34;4.23;;;3.93;;
2646;SDS011;1333;50.958;6.770;2023-09-07T14:30:59;4.40;;;4.10;;
2646;SDS011;1333;50.958;6.770;2023-09-07T14:33:28;4.37;;;4.07;;
2646;SDS011;1333;50.958;6.770;2023-09-07T14:35:53;4.50;;;4.10;;
2646;SDS011;1333;50.958;6.770;2023-09-07T14:38:20;4.30;;;3.90;;
2646;SDS011;1333;50.958;6.770;2023-09-07T14:40:46;3.80;;;3.50;;
2646;SDS011;1333;50.958;6.770;2023-09-07T14:43:13;6.30;;;4.40;;
2646;SDS011;1333;50.958;6.770;2023-09-07T14:45:39;3.90;;;3.63;;
2646;SDS011;1333;50.958;6.770;2023-09-07T14:48:04;3.97;;;3.67;;
2646;SDS011;1333;50.958;6.770;2023-09-07T14:50:30;3.83;;;3.43;;
2646;SDS011;1333;50.958;6.770;2023-09-07T14:52:56;3.80;;;3.50;;
2646;SDS011;1333;50.958;6.770;2023-09-07T14:55:21;10.73;;;3.90;;
2646;SDS011;1333;50.958;6.770;2023-09-07T14:57:47;4.70;;;4.30;;
2646;SDS011;1333;50.958;6.770;2023-09-07T15:00:12;4.30;;;4.00;;
2646;SDS011;1333;50.958;6.770;2023-09-07T15:02:38;3.40;;;3.10;;
2646;SDS011;1333;50.958;6.770;2023-09-07T15:05:04;4.07;;;3.67;;
2646;SDS011;1333;50.958;6.770;2023-09-07T15:07:29;5.60;;;4.07;;
2646;SDS011;1333;50.958;6.770;2023-09-07T15:09:56;4.67;;;4.30;;
2646;SDS011;1333;50.958;6.770;2023-09-07T15:12:21;4.37;;;3.97;;
2646;SDS011;1333;50.958;6.770;2023-09-07T15:14:47;3.90;;;3.60;;
2646;SDS011;1333;50.958;6.770;2023-09-07T15:17:14;5.00;;;3.97;;